< < Back
Terminal Aerodrome Forecast


Current Version              Previous Versions:   1  2  3  4  5  6  7  8  9  

Terminal Aerodrome Forecast

165
FTUS44 KBMX 231100
TAFBHM
TAF
KBHM 231128Z 2312/2412 VRB02KT P6SM SCT040
     FM231800 26005KT P6SM VCTS BKN040CB
     FM240300 28002KT P6SM BKN050 BKN150=



Latest METAR

743
SAUS70 KWBC 240156
MTRBHM
METAR KBHM 240153Z 22004KT 10SM BKN200 26/22 A3002 RMK AO2 SLP155
T02610222


USA.gov is the U.S. government's official web portal to all federal, state and local government web resources and services.